sensor_id;sensor_type;location;lat;lon;timestamp;pressure;altitude;pressure_sealevel;temperature;humidity
22241;BME280;11289;52.524;13.694;2023-02-28T00:00:46;102524.03;;;1.69;69.12
22241;BME280;11289;52.524;13.694;2023-02-28T00:03:11;102523.84;;;1.64;68.87
22241;BME280;11289;52.524;13.694;2023-02-28T00:05:37;102533.75;;;1.65;69.04
22241;BME280;11289;52.524;13.694;2023-02-28T00:08:02;102524.28;;;1.61;69.11
22241;BME280;11289;52.524;13.694;2023-02-28T00:10:29;102539.22;;;1.65;69.09
22241;BME280;11289;52.524;13.694;2023-02-28T00:12:59;102534.81;;;1.64;69.33
22241;BME280;11289;52.524;13.694;2023-02-28T00:15:25;102541.78;;;1.60;69.24
22241;BME280;11289;52.524;13.694;2023-02-28T00:17:51;102534.03;;;1.56;69.47
22241;BME280;11289;52.524;13.694;2023-02-28T00:20:18;102539.44;;;1.63;69.36
22241;BME280;11289;52.524;13.694;2023-02-28T00:22:46;102537.75;;;1.62;69.40
22241;BME280;11289;52.524;13.694;2023-02-28T00:25:14;102522.00;;;1.58;69.38
22241;BME280;11289;52.524;13.694;2023-02-28T00:27:40;102525.97;;;1.62;69.38
22241;BME280;11289;52.524;13.694;2023-02-28T00:30:08;102528.94;;;1.60;69.54
22241;BME280;11289;52.524;13.694;2023-02-28T00:32:33;102529.41;;;1.57;69.35
22241;BME280;11289;52.524;13.694;2023-02-28T00:34:59;102534.19;;;1.62;69.67
22241;BME280;11289;52.524;13.694;2023-02-28T00:37:25;102525.81;;;1.56;69.74
22241;BME280;11289;52.524;13.694;2023-02-28T00:39:51;102533.78;;;1.58;69.46
22241;BME280;11289;52.524;13.694;2023-02-28T00:42:16;102525.19;;;1.54;69.42
22241;BME280;11289;52.524;13.694;2023-02-28T00:44:41;102530.69;;;1.54;69.22
22241;BME280;11289;52.524;13.694;2023-02-28T00:47:07;102530.03;;;1.52;69.57
22241;BME280;11289;52.524;13.694;2023-02-28T00:49:32;102532.41;;;1.49;69.53
22241;BME280;11289;52.524;13.694;2023-02-28T00:51:58;102518.75;;;1.42;69.71
22241;BME280;11289;52.524;13.694;2023-02-28T00:54:23;102530.94;;;1.46;69.49
22241;BME280;11289;52.524;13.694;2023-02-28T00:56:49;102528.06;;;1.41;69.52
22241;BME280;11289;52.524;13.694;2023-02-28T00:59:16;102525.75;;;1.38;69.60
22241;BME280;11289;52.524;13.694;2023-02-28T01:01:44;102529.38;;;1.32;69.76
22241;BME280;11289;52.524;13.694;2023-02-28T01:04:09;102520.78;;;1.28;70.11
22241;BME280;11289;52.524;13.694;2023-02-28T01:06:35;102527.06;;;1.29;69.77
22241;BME280;11289;52.524;13.694;2023-02-28T01:09:01;102521.44;;;1.24;70.10
22241;BME280;11289;52.524;13.694;2023-02-28T01:11:27;102515.78;;;1.18;69.90
22241;BME280;11289;52.524;13.694;2023-02-28T01:13:53;102520.47;;;1.11;69.94
22241;BME280;11289;52.524;13.694;2023-02-28T01:16:18;102519.00;;;1.09;69.97
22241;BME280;11289;52.524;13.694;2023-02-28T01:18:43;102513.97;;;1.06;70.43
22241;BME280;11289;52.524;13.694;2023-02-28T01:21:12;102527.66;;;1.06;69.86
22241;BME280;11289;52.524;13.694;2023-02-28T01:23:39;102513.16;;;0.98;70.07
22241;BME280;11289;52.524;13.694;2023-02-28T01:26:10;102517.19;;;0.96;69.97
22241;BME280;11289;52.524;13.694;2023-02-28T01:28:36;102522.94;;;0.88;70.08
22241;BME280;11289;52.524;13.694;2023-02-28T01:31:02;102514.97;;;0.79;69.70
22241;BME280;11289;52.524;13.694;2023-02-28T01:33:27;102514.59;;;0.76;69.88
22241;BME280;11289;52.524;13.694;2023-02-28T01:36:14;102516.28;;;0.70;70.30
22241;BME280;11289;52.524;13.694;2023-02-28T01:38:39;102511.88;;;0.62;70.04
22241;BME280;11289;52.524;13.694;2023-02-28T01:41:06;102513.59;;;0.57;70.08
22241;BME280;11289;52.524;13.694;2023-02-28T01:43:56;102514.03;;;0.54;70.07
22241;BME280;11289;52.524;13.694;2023-02-28T01:46:22;102513.22;;;0.46;70.35
22241;BME280;11289;52.524;13.694;2023-02-28T01:49:02;102507.81;;;0.40;70.74
22241;BME280;11289;52.524;13.694;2023-02-28T01:54:03;102510.97;;;0.30;70.85
22241;BME280;11289;52.524;13.694;2023-02-28T01:56:33;102511.63;;;0.25;71.13
22241;BME280;11289;52.524;13.694;2023-02-28T01:59:02;102500.72;;;0.19;70.84
22241;BME280;11289;52.524;13.694;2023-02-28T02:01:27;102516.88;;;0.20;71.67
22241;BME280;11289;52.524;13.694;2023-02-28T02:03:59;102508.28;;;0.16;71.12
22241;BME280;11289;52.524;13.694;2023-02-28T02:06:29;102507.03;;;0.12;71.43
22241;BME280;11289;52.524;13.694;2023-02-28T02:08:55;102510.22;;;0.09;71.62
22241;BME280;11289;52.524;13.694;2023-02-28T02:11:22;102510.41;;;0.08;71.40
22241;BME280;11289;52.524;13.694;2023-02-28T02:22:20;102506.25;;;-0.08;71.97
22241;BME280;11289;52.524;13.694;2023-02-28T02:27:25;102513.84;;;-0.17;71.60
22241;BME280;11289;52.524;13.694;2023-02-28T02:33:04;102498.53;;;-0.31;71.75
22241;BME280;11289;52.524;13.694;2023-02-28T02:35:52;102504.41;;;-0.34;71.86
22241;BME280;11289;52.524;13.694;2023-02-28T02:38:42;102512.38;;;-0.40;71.79
22241;BME280;11289;52.524;13.694;2023-02-28T02:41:49;102515.75;;;-0.44;71.92
22241;BME280;11289;52.524;13.694;2023-02-28T02:44:34;102511.97;;;-0.50;72.04
22241;BME280;11289;52.524;13.694;2023-02-28T02:47:08;102512.59;;;-0.55;71.65
22241;BME280;11289;52.524;13.694;2023-02-28T02:49:36;102508.59;;;-0.59;72.64
22241;BME280;11289;52.524;13.694;2023-02-28T02:52:06;102509.03;;;-0.62;72.49
22241;BME280;11289;52.524;13.694;2023-02-28T02:54:37;102500.63;;;-0.67;72.39
22241;BME280;11289;52.524;13.694;2023-02-28T02:57:10;102507.75;;;-0.66;71.97
22241;BME280;11289;52.524;13.694;2023-02-28T02:59:40;102514.47;;;-0.68;71.97
22241;BME280;11289;52.524;13.694;2023-02-28T03:02:08;102506.91;;;-0.73;72.36
22241;BME280;11289;52.524;13.694;2023-02-28T03:04:42;102510.91;;;-0.76;72.55
22241;BME280;11289;52.524;13.694;2023-02-28T03:07:08;102499.34;;;-0.84;72.92
22241;BME280;11289;52.524;13.694;2023-02-28T03:09:34;102516.16;;;-0.81;72.78
22241;BME280;11289;52.524;13.694;2023-02-28T03:12:01;102515.28;;;-0.81;72.68
22241;BME280;11289;52.524;13.694;2023-02-28T03:14:47;102517.41;;;-0.83;72.92
22241;BME280;11289;52.524;13.694;2023-02-28T03:17:24;102513.81;;;-0.91;72.22
22241;BME280;11289;52.524;13.694;2023-02-28T03:28:16;102522.19;;;-0.99;73.11
22241;BME280;11289;52.524;13.694;2023-02-28T03:31:05;102525.34;;;-1.02;73.39
22241;BME280;11289;52.524;13.694;2023-02-28T03:33:57;102522.19;;;-1.06;73.03
22241;BME280;11289;52.524;13.694;2023-02-28T03:36:27;102528.06;;;-1.09;72.89
22241;BME280;11289;52.524;13.694;2023-02-28T03:39:00;102529.94;;;-1.09;73.04
22241;BME280;11289;52.524;13.694;2023-02-28T03:41:39;102529.50;;;-1.13;73.12
22241;BME280;11289;52.524;13.694;2023-02-28T03:44:15;102527.41;;;-1.17;73.22
22241;BME280;11289;52.524;13.694;2023-02-28T03:46:48;102520.22;;;-1.25;73.38
22241;BME280;11289;52.524;13.694;2023-02-28T03:49:21;102521.09;;;-1.25;73.35
22241;BME280;11289;52.524;13.694;2023-02-28T03:51:48;102530.31;;;-1.26;73.16
22241;BME280;11289;52.524;13.694;2023-02-28T03:54:19;102534.06;;;-1.27;73.10
22241;BME280;11289;52.524;13.694;2023-02-28T03:57:10;102524.00;;;-1.33;73.42
22241;BME280;11289;52.524;13.694;2023-02-28T03:59:39;102532.78;;;-1.31;73.82
22241;BME280;11289;52.524;13.694;2023-02-28T04:02:07;102527.75;;;-1.34;73.75
22241;BME280;11289;52.524;13.694;2023-02-28T04:04:33;102529.84;;;-1.36;73.43
22241;BME280;11289;52.524;13.694;2023-02-28T04:07:17;102534.28;;;-1.35;73.81
22241;BME280;11289;52.524;13.694;2023-02-28T04:09:43;102533.63;;;-1.37;73.89
22241;BME280;11289;52.524;13.694;2023-02-28T04:12:09;102532.13;;;-1.46;73.32
22241;BME280;11289;52.524;13.694;2023-02-28T04:14:34;102527.50;;;-1.46;73.31
22241;BME280;11289;52.524;13.694;2023-02-28T04:17:00;102528.75;;;-1.48;73.43
22241;BME280;11289;52.524;13.694;2023-02-28T04:19:25;102514.25;;;-1.62;73.58
22241;BME280;11289;52.524;13.694;2023-02-28T04:21:52;102530.66;;;-1.49;73.28
22241;BME280;11289;52.524;13.694;2023-02-28T04:24:20;102537.34;;;-1.51;73.68
22241;BME280;11289;52.524;13.694;2023-02-28T04:26:48;102533.53;;;-1.57;73.89
22241;BME280;11289;52.524;13.694;2023-02-28T04:29:28;102538.97;;;-1.57;73.40
22241;BME280;11289;52.524;13.694;2023-02-28T04:31:54;102537.72;;;-1.61;73.75
22241;BME280;11289;52.524;13.694;2023-02-28T04:34:22;102543.34;;;-1.63;73.71
22241;BME280;11289;52.524;13.694;2023-02-28T04:36:48;102523.81;;;-1.73;74.03
22241;BME280;11289;52.524;13.694;2023-02-28T04:39:18;102536.00;;;-1.69;74.66
22241;BME280;11289;52.524;13.694;2023-02-28T04:41:45;102547.34;;;-1.65;74.77
22241;BME280;11289;52.524;13.694;2023-02-28T04:44:10;102548.59;;;-1.68;75.02
22241;BME280;11289;52.524;13.694;2023-02-28T04:46:36;102518.72;;;-1.89;75.40
22241;BME280;11289;52.524;13.694;2023-02-28T04:49:01;102539.94;;;-1.78;75.19
22241;BME280;11289;52.524;13.694;2023-02-28T04:51:27;102530.69;;;-1.84;74.85
22241;BME280;11289;52.524;13.694;2023-02-28T04:53:52;102551.88;;;-1.79;74.92
22241;BME280;11289;52.524;13.694;2023-02-28T04:56:18;102546.00;;;-1.83;75.13
22241;BME280;11289;52.524;13.694;2023-02-28T04:58:44;102556.69;;;-1.81;75.20
22241;BME280;11289;52.524;13.694;2023-02-28T05:01:20;102557.91;;;-1.84;74.80
22241;BME280;11289;52.524;13.694;2023-02-28T05:03:46;102547.19;;;-1.92;74.49
22241;BME280;11289;52.524;13.694;2023-02-28T05:06:12;102548.03;;;-1.91;74.55
22241;BME280;11289;52.524;13.694;2023-02-28T05:08:37;102564.16;;;-1.90;74.60
22241;BME280;11289;52.524;13.694;2023-02-28T05:11:05;102564.38;;;-1.91;75.23
22241;BME280;11289;52.524;13.694;2023-02-28T05:13:31;102569.16;;;-1.94;75.34
22241;BME280;11289;52.524;13.694;2023-02-28T05:15:56;102564.13;;;-1.97;75.13
22241;BME280;11289;52.524;13.694;2023-02-28T05:18:21;102558.44;;;-2.02;76.12
22241;BME280;11289;52.524;13.694;2023-02-28T05:20:47;102567.25;;;-2.00;75.42
22241;BME280;11289;52.524;13.694;2023-02-28T05:23:13;102566.63;;;-2.02;75.04
22241;BME280;11289;52.524;13.694;2023-02-28T05:25:40;102556.06;;;-2.12;74.83
22241;BME280;11289;52.524;13.694;2023-02-28T05:28:06;102570.97;;;-2.07;74.92
22241;BME280;11289;52.524;13.694;2023-02-28T05:30:33;102570.09;;;-2.08;75.92
22241;BME280;11289;52.524;13.694;2023-02-28T05:32:58;102569.47;;;-2.10;75.56
22241;BME280;11289;52.524;13.694;2023-02-28T05:35:24;102557.22;;;-2.21;75.29
22241;BME280;11289;52.524;13.694;2023-02-28T05:37:50;102572.41;;;-2.12;75.84
22241;BME280;11289;52.524;13.694;2023-02-28T05:40:16;102575.53;;;-2.15;76.28
22241;BME280;11289;52.524;13.694;2023-02-28T05:42:41;102576.34;;;-2.14;76.21
22241;BME280;11289;52.524;13.694;2023-02-28T05:45:08;102573.38;;;-2.19;75.65
22241;BME280;11289;52.524;13.694;2023-02-28T05:47:34;102562.47;;;-2.19;75.55
22241;BME280;11289;52.524;13.694;2023-02-28T05:49:59;102560.34;;;-2.24;75.64
22241;BME280;11289;52.524;13.694;2023-02-28T05:52:26;102577.16;;;-2.20;75.70
22241;BME280;11289;52.524;13.694;2023-02-28T05:54:51;102574.03;;;-2.17;76.09
22241;BME280;11289;52.524;13.694;2023-02-28T05:57:17;102564.13;;;-2.25;75.60
22241;BME280;11289;52.524;13.694;2023-02-28T05:59:42;102563.69;;;-2.29;75.77
22241;BME280;11289;52.524;13.694;2023-02-28T06:02:13;102579.22;;;-2.22;75.63
22241;BME280;11289;52.524;13.694;2023-02-28T06:04:38;102570.41;;;-2.24;76.28
22241;BME280;11289;52.524;13.694;2023-02-28T06:07:05;102579.41;;;-2.24;76.07
22241;BME280;11289;52.524;13.694;2023-02-28T06:09:31;102580.84;;;-2.28;76.45
22241;BME280;11289;52.524;13.694;2023-02-28T06:12:01;102583.38;;;-2.26;76.29
22241;BME280;11289;52.524;13.694;2023-02-28T06:14:32;102588.63;;;-2.25;76.40
22241;BME280;11289;52.524;13.694;2023-02-28T06:16:59;102587.78;;;-2.25;76.11
22241;BME280;11289;52.524;13.694;2023-02-28T06:19:25;102592.19;;;-2.24;76.63
22241;BME280;11289;52.524;13.694;2023-02-28T06:21:51;102595.31;;;-2.28;76.75
22241;BME280;11289;52.524;13.694;2023-02-28T06:24:24;102600.16;;;-2.23;76.92
22241;BME280;11289;52.524;13.694;2023-02-28T06:26:53;102590.28;;;-2.24;76.40
22241;BME280;11289;52.524;13.694;2023-02-28T06:29:18;102594.72;;;-2.23;76.48
22241;BME280;11289;52.524;13.694;2023-02-28T06:31:44;102604.78;;;-2.23;76.55
22241;BME280;11289;52.524;13.694;2023-02-28T06:34:10;102600.97;;;-2.22;76.26
22241;BME280;11289;52.524;13.694;2023-02-28T06:36:40;102601.66;;;-2.20;76.88
22241;BME280;11289;52.524;13.694;2023-02-28T06:39:07;102610.66;;;-2.20;77.19
22241;BME280;11289;52.524;13.694;2023-02-28T06:41:32;102589.00;;;-2.28;76.41
22241;BME280;11289;52.524;13.694;2023-02-28T06:44:13;102616.56;;;-2.16;76.54
22241;BME280;11289;52.524;13.694;2023-02-28T06:46:43;102622.00;;;-2.16;77.17
22241;BME280;11289;52.524;13.694;2023-02-28T06:49:10;102618.22;;;-2.15;76.56
22241;BME280;11289;52.524;13.694;2023-02-28T06:51:38;102617.19;;;-2.14;77.18
22241;BME280;11289;52.524;13.694;2023-02-28T06:54:04;102605.59;;;-2.23;76.63
22241;BME280;11289;52.524;13.694;2023-02-28T06:56:30;102619.63;;;-2.19;77.13
22241;BME280;11289;52.524;13.694;2023-02-28T06:58:55;102618.63;;;-2.18;77.06
22241;BME280;11289;52.524;13.694;2023-02-28T07:01:21;102619.47;;;-2.18;76.83
22241;BME280;11289;52.524;13.694;2023-02-28T07:03:48;102631.25;;;-2.11;76.84
22241;BME280;11289;52.524;13.694;2023-02-28T07:06:18;102621.59;;;-2.13;76.92
22241;BME280;11289;52.524;13.694;2023-02-28T07:08:43;102635.25;;;-2.06;77.36
22241;BME280;11289;52.524;13.694;2023-02-28T07:11:09;102613.44;;;-2.13;77.40
22241;BME280;11289;52.524;13.694;2023-02-28T07:13:35;102623.13;;;-2.04;78.13
22241;BME280;11289;52.524;13.694;2023-02-28T07:16:06;102630.91;;;-2.01;78.74
22241;BME280;11289;52.524;13.694;2023-02-28T07:18:32;102622.09;;;-2.03;78.71
22241;BME280;11289;52.524;13.694;2023-02-28T07:20:58;102621.97;;;-1.95;78.98
22241;BME280;11289;52.524;13.694;2023-02-28T07:23:23;102618.66;;;-1.83;79.34
22241;BME280;11289;52.524;13.694;2023-02-28T07:25:50;102624.72;;;-1.60;80.68
22241;BME280;11289;52.524;13.694;2023-02-28T07:28:16;102626.06;;;-1.42;81.38
22241;BME280;11289;52.524;13.694;2023-02-28T07:30:41;102627.69;;;-1.13;81.40
22241;BME280;11289;52.524;13.694;2023-02-28T07:33:07;102631.56;;;-0.87;81.25
22241;BME280;11289;52.524;13.694;2023-02-28T07:35:33;102633.50;;;-0.61;81.45
22241;BME280;11289;52.524;13.694;2023-02-28T07:37:59;102616.53;;;-0.29;81.23
22241;BME280;11289;52.524;13.694;2023-02-28T07:40:25;102633.34;;;0.08;80.83
22241;BME280;11289;52.524;13.694;2023-02-28T07:42:51;102637.53;;;0.37;76.49
22241;BME280;11289;52.524;13.694;2023-02-28T07:45:16;102637.88;;;0.61;76.57
22241;BME280;11289;52.524;13.694;2023-02-28T07:47:43;102635.69;;;0.90;76.91
22241;BME280;11289;52.524;13.694;2023-02-28T07:50:11;102638.09;;;1.18;75.03
22241;BME280;11289;52.524;13.694;2023-02-28T07:52:37;102640.47;;;1.46;75.14
22241;BME280;11289;52.524;13.694;2023-02-28T07:55:04;102632.13;;;1.66;71.23
22241;BME280;11289;52.524;13.694;2023-02-28T07:57:29;102631.28;;;1.66;67.49
22241;BME280;11289;52.524;13.694;2023-02-28T07:59:55;102641.31;;;1.79;65.40
22241;BME280;11289;52.524;13.694;2023-02-28T08:02:20;102640.13;;;1.93;69.94
22241;BME280;11289;52.524;13.694;2023-02-28T08:04:45;102638.00;;;2.20;70.14
22241;BME280;11289;52.524;13.694;2023-02-28T08:07:14;102641.38;;;2.41;70.21
22241;BME280;11289;52.524;13.694;2023-02-28T08:09:40;102635.84;;;2.66;69.37
22241;BME280;11289;52.524;13.694;2023-02-28T08:12:06;102643.16;;;2.54;64.42
22241;BME280;11289;52.524;13.694;2023-02-28T08:14:32;102646.97;;;2.71;63.38
22241;BME280;11289;52.524;13.694;2023-02-28T08:16:58;102627.47;;;2.79;62.86
22241;BME280;11289;52.524;13.694;2023-02-28T08:19:23;102622.78;;;2.99;60.53
22241;BME280;11289;52.524;13.694;2023-02-28T08:21:49;102643.06;;;3.16;62.00
22241;BME280;11289;52.524;13.694;2023-02-28T08:24:14;102636.47;;;3.36;62.95
22241;BME280;11289;52.524;13.694;2023-02-28T08:26:39;102642.16;;;3.64;64.00
22241;BME280;11289;52.524;13.694;2023-02-28T08:29:05;102638.38;;;3.89;59.61
22241;BME280;11289;52.524;13.694;2023-02-28T08:31:30;102638.75;;;3.93;60.27
22241;BME280;11289;52.524;13.694;2023-02-28T08:33:55;102640.47;;;4.06;57.34
22241;BME280;11289;52.524;13.694;2023-02-28T08:36:24;102633.19;;;4.23;59.23
22241;BME280;11289;52.524;13.694;2023-02-28T08:38:49;102646.91;;;4.47;56.34
22241;BME280;11289;52.524;13.694;2023-02-28T08:41:14;102653.13;;;4.54;54.10
22241;BME280;11289;52.524;13.694;2023-02-28T08:43:40;102637.59;;;4.48;53.63
22241;BME280;11289;52.524;13.694;2023-02-28T08:46:06;102638.31;;;4.55;52.32
22241;BME280;11289;52.524;13.694;2023-02-28T08:48:34;102649.50;;;4.77;53.38
22241;BME280;11289;52.524;13.694;2023-02-28T08:53:25;102625.72;;;5.12;53.01
22241;BME280;11289;52.524;13.694;2023-02-28T08:56:02;102645.78;;;5.53;53.08
22241;BME280;11289;52.524;13.694;2023-02-28T08:58:28;102643.91;;;5.70;51.23
22241;BME280;11289;52.524;13.694;2023-02-28T09:00:54;102643.81;;;5.82;48.17
22241;BME280;11289;52.524;13.694;2023-02-28T09:03:20;102648.81;;;5.97;48.71
22241;BME280;11289;52.524;13.694;2023-02-28T09:06:12;102646.19;;;6.24;47.22
22241;BME280;11289;52.524;13.694;2023-02-28T09:08:39;102650.03;;;6.40;45.27
22241;BME280;11289;52.524;13.694;2023-02-28T09:11:05;102641.41;;;6.54;45.34
22241;BME280;11289;52.524;13.694;2023-02-28T09:13:31;102637.19;;;6.68;45.19
22241;BME280;11289;52.524;13.694;2023-02-28T09:15:58;102647.63;;;6.66;43.68
22241;BME280;11289;52.524;13.694;2023-02-28T09:18:24;102645.09;;;6.59;43.69
22241;BME280;11289;52.524;13.694;2023-02-28T09:20:50;102641.47;;;6.81;45.97
22241;BME280;11289;52.524;13.694;2023-02-28T09:23:15;102642.84;;;6.78;41.94
22241;BME280;11289;52.524;13.694;2023-02-28T09:25:54;102646.31;;;6.91;44.04
22241;BME280;11289;52.524;13.694;2023-02-28T09:28:20;102635.50;;;7.11;44.19
22241;BME280;11289;52.524;13.694;2023-02-28T09:30:48;102638.63;;;7.42;44.52
22241;BME280;11289;52.524;13.694;2023-02-28T09:33:15;102631.06;;;7.60;43.06
22241;BME280;11289;52.524;13.694;2023-02-28T09:35:41;102636.19;;;7.78;41.44
22241;BME280;11289;52.524;13.694;2023-02-28T09:38:08;102635.72;;;7.87;43.04
22241;BME280;11289;52.524;13.694;2023-02-28T09:40:37;102642.34;;;7.85;41.15
22241;BME280;11289;52.524;13.694;2023-02-28T09:43:04;102642.94;;;7.88;39.68
22241;BME280;11289;52.524;13.694;2023-02-28T09:45:40;102641.69;;;8.06;41.30
22241;BME280;11289;52.524;13.694;2023-02-28T09:48:14;102639.84;;;8.16;40.89
22241;BME280;11289;52.524;13.694;2023-02-28T09:50:46;102641.97;;;8.04;37.78
22241;BME280;11289;52.524;13.694;2023-02-28T09:53:34;102646.75;;;8.19;39.92
22241;BME280;11289;52.524;13.694;2023-02-28T09:56:05;102642.44;;;8.28;39.11
22241;BME280;11289;52.524;13.694;2023-02-28T09:58:44;102649.03;;;8.60;39.55
22241;BME280;11289;52.524;13.694;2023-02-28T10:03:56;102645.84;;;8.88;36.75
22241;BME280;11289;52.524;13.694;2023-02-28T10:06:28;102643.28;;;8.71;37.76
22241;BME280;11289;52.524;13.694;2023-02-28T10:09:06;102651.06;;;8.80;35.61
22241;BME280;11289;52.524;13.694;2023-02-28T10:11:35;102653.81;;;8.80;36.69
22241;BME280;11289;52.524;13.694;2023-02-28T10:14:16;102634.88;;;8.56;34.53
22241;BME280;11289;52.524;13.694;2023-02-28T10:16:52;102639.59;;;8.61;38.17
22241;BME280;11289;52.524;13.694;2023-02-28T10:19:28;102640.38;;;9.04;38.22
22241;BME280;11289;52.524;13.694;2023-02-28T10:22:04;102629.25;;;8.99;35.08
22241;BME280;11289;52.524;13.694;2023-02-28T10:24:51;102638.97;;;8.96;36.36
22241;BME280;11289;52.524;13.694;2023-02-28T10:27:24;102642.28;;;8.98;37.08
22241;BME280;11289;52.524;13.694;2023-02-28T10:30:01;102636.69;;;8.40;35.78
22241;BME280;11289;52.524;13.694;2023-02-28T10:32:33;102638.91;;;8.43;35.69
22241;BME280;11289;52.524;13.694;2023-02-28T10:35:06;102631.09;;;8.35;36.40
22241;BME280;11289;52.524;13.694;2023-02-28T10:37:32;102635.00;;;8.39;35.18
22241;BME280;11289;52.524;13.694;2023-02-28T10:39:57;102633.75;;;8.52;35.49
22241;BME280;11289;52.524;13.694;2023-02-28T10:42:23;102637.69;;;8.61;35.96
22241;BME280;11289;52.524;13.694;2023-02-28T10:45:17;102638.63;;;8.40;37.06
22241;BME280;11289;52.524;13.694;2023-02-28T10:47:55;102631.88;;;8.63;37.20
22241;BME280;11289;52.524;13.694;2023-02-28T10:53:17;102619.72;;;9.53;35.05
22241;BME280;11289;52.524;13.694;2023-02-28T10:58:29;102606.69;;;9.53;35.55
22241;BME280;11289;52.524;13.694;2023-02-28T11:00:54;102618.88;;;9.73;35.41
22241;BME280;11289;52.524;13.694;2023-02-28T11:03:34;102614.72;;;10.11;35.10
22241;BME280;11289;52.524;13.694;2023-02-28T11:06:06;102605.31;;;9.97;34.41
22241;BME280;11289;52.524;13.694;2023-02-28T11:08:33;102602.25;;;9.73;32.26
22241;BME280;11289;52.524;13.694;2023-02-28T11:11:04;102610.25;;;9.44;33.27
22241;BME280;11289;52.524;13.694;2023-02-28T11:13:35;102598.91;;;9.71;34.60
22241;BME280;11289;52.524;13.694;2023-02-28T11:16:05;102604.47;;;9.66;33.28
22241;BME280;11289;52.524;13.694;2023-02-28T11:18:42;102598.91;;;9.71;35.01
22241;BME280;11289;52.524;13.694;2023-02-28T11:21:09;102598.38;;;10.15;34.31
22241;BME280;11289;52.524;13.694;2023-02-28T11:23:40;102598.31;;;10.31;33.52
22241;BME280;11289;52.524;13.694;2023-02-28T11:26:06;102589.13;;;10.56;32.36
22241;BME280;11289;52.524;13.694;2023-02-28T11:28:38;102599.19;;;9.64;32.60
22241;BME280;11289;52.524;13.694;2023-02-28T11:31:05;102605.03;;;9.78;33.08
22241;BME280;11289;52.524;13.694;2023-02-28T11:33:42;102610.88;;;9.92;33.10
22241;BME280;11289;52.524;13.694;2023-02-28T11:38:41;102591.09;;;10.29;33.34
22241;BME280;11289;52.524;13.694;2023-02-28T11:46:49;102605.19;;;10.69;32.98
22241;BME280;11289;52.524;13.694;2023-02-28T11:49:32;102600.50;;;10.65;33.47
22241;BME280;11289;52.524;13.694;2023-02-28T11:54:59;102602.63;;;10.88;32.06
22241;BME280;11289;52.524;13.694;2023-02-28T11:57:36;102592.88;;;10.86;31.99
22241;BME280;11289;52.524;13.694;2023-02-28T12:03:23;102594.84;;;10.80;31.63
22241;BME280;11289;52.524;13.694;2023-02-28T12:06:01;102591.66;;;10.42;31.26
22241;BME280;11289;52.524;13.694;2023-02-28T12:08:56;102595.53;;;10.46;32.97
22241;BME280;11289;52.524;13.694;2023-02-28T12:16:48;102582.59;;;10.86;32.88
22241;BME280;11289;52.524;13.694;2023-02-28T12:19:20;102566.38;;;10.49;31.99
22241;BME280;11289;52.524;13.694;2023-02-28T12:22:15;102560.75;;;10.69;32.50
22241;BME280;11289;52.524;13.694;2023-02-28T12:27:19;102558.69;;;10.09;32.00
22241;BME280;11289;52.524;13.694;2023-02-28T12:30:21;102561.72;;;10.18;32.71
22241;BME280;11289;52.524;13.694;2023-02-28T12:33:36;102554.22;;;10.08;31.68
22241;BME280;11289;52.524;13.694;2023-02-28T12:35:56;102549.53;;;10.04;32.80
22241;BME280;11289;52.524;13.694;2023-02-28T12:38:26;102544.47;;;10.32;32.83
22241;BME280;11289;52.524;13.694;2023-02-28T12:41:03;102538.31;;;10.50;32.14
22241;BME280;11289;52.524;13.694;2023-02-28T12:43:36;102532.47;;;10.52;33.23
22241;BME280;11289;52.524;13.694;2023-02-28T12:46:08;102529.47;;;10.27;32.08
22241;BME280;11289;52.524;13.694;2023-02-28T12:48:47;102522.25;;;10.26;32.76
22241;BME280;11289;52.524;13.694;2023-02-28T12:51:15;102512.81;;;10.43;34.00
22241;BME280;11289;52.524;13.694;2023-02-28T12:54:04;102514.38;;;10.65;33.48
22241;BME280;11289;52.524;13.694;2023-02-28T12:56:44;102508.81;;;10.65;31.73
22241;BME280;11289;52.524;13.694;2023-02-28T13:02:09;102499.88;;;9.71;33.02
22241;BME280;11289;52.524;13.694;2023-02-28T13:10:21;102503.78;;;9.14;35.86
22241;BME280;11289;52.524;13.694;2023-02-28T13:12:48;102502.69;;;9.40;35.89
22241;BME280;11289;52.524;13.694;2023-02-28T13:15:25;102500.72;;;9.20;33.80
22241;BME280;11289;52.524;13.694;2023-02-28T13:17:55;102497.31;;;8.72;35.13
22241;BME280;11289;52.524;13.694;2023-02-28T13:20:34;102506.78;;;8.92;36.22
22241;BME280;11289;52.524;13.694;2023-02-28T13:23:00;102506.47;;;8.78;34.34
22241;BME280;11289;52.524;13.694;2023-02-28T13:28:12;102491.75;;;8.67;36.18
22241;BME280;11289;52.524;13.694;2023-02-28T13:38:45;102497.22;;;7.56;36.91
22241;BME280;11289;52.524;13.694;2023-02-28T13:46:35;102485.31;;;7.18;37.32
22241;BME280;11289;52.524;13.694;2023-02-28T14:03:10;102479.34;;;6.76;39.27
22241;BME280;11289;52.524;13.694;2023-02-28T14:05:38;102481.72;;;6.62;38.44
22241;BME280;11289;52.524;13.694;2023-02-28T14:08:24;102487.94;;;6.53;40.25
22241;BME280;11289;52.524;13.694;2023-02-28T14:11:02;102487.81;;;6.42;39.32
22241;BME280;11289;52.524;13.694;2023-02-28T14:16:11;102488.25;;;6.34;39.89
22241;BME280;11289;52.524;13.694;2023-02-28T14:18:41;102483.75;;;6.28;40.01
22241;BME280;11289;52.524;13.694;2023-02-28T14:21:27;102482.81;;;6.17;39.82
22241;BME280;11289;52.524;13.694;2023-02-28T14:24:16;102488.34;;;6.17;39.87
22241;BME280;11289;52.524;13.694;2023-02-28T14:34:49;102478.31;;;5.94;39.97
22241;BME280;11289;52.524;13.694;2023-02-28T14:37:20;102476.13;;;5.96;41.51
22241;BME280;11289;52.524;13.694;2023-02-28T14:39:49;102464.63;;;5.99;40.08
22241;BME280;11289;52.524;13.694;2023-02-28T14:42:28;102472.66;;;6.01;40.76
22241;BME280;11289;52.524;13.694;2023-02-28T14:44:54;102474.97;;;6.09;41.51
22241;BME280;11289;52.524;13.694;2023-02-28T14:47:21;102473.81;;;6.05;40.47